Time;durP1;ratioP1;P1;durP2;ratioP2;P2;SDS_P1;SDS_P2;PMS_P1;PMS_P2;Temp;Humidity;BMP_temperature;BMP_pressure;BME280_temperature;BME280_humidity;BME280_pressure;Samples;Min_cycle;Max_cycle;Signal;HPM_P1;HPM_P2
2023/06/24 00:00:59;;;;;;;10.60;7.20;;;16.40;99.90;15.80;100651;;;;585082;242;24048;-77
2023/06/24 00:03:28;;;;;;;12.33;8.23;;;16.40;99.90;15.80;100651;;;;584922;242;24012;-81
2023/06/24 00:05:56;;;;;;;13.37;8.67;;;16.30;99.90;15.70;100639;;;;584269;242;24024;-79
2023/06/24 00:08:34;;;;;;;12.87;7.60;;;16.30;99.90;15.70;100631;;;;584025;242;24018;-80
2023/06/24 00:10:52;;;;;;;11.33;7.63;;;16.30;99.90;15.70;100640;;;;583265;242;24084;-81
2023/06/24 00:13:19;;;;;;;12.13;8.13;;;16.30;99.90;15.70;100634;;;;583858;242;24046;-77
2023/06/24 00:15:47;;;;;;;11.80;7.77;;;16.30;99.90;15.70;100640;;;;583638;242;24130;-79
2023/06/24 00:18:15;;;;;;;9.53;7.13;;;16.20;99.90;15.60;100633;;;;583638;242;24031;-82
2023/06/24 00:20:43;;;;;;;10.93;6.70;;;15.80;99.90;15.60;100629;;;;583922;242;24062;-82
2023/06/24 00:23:14;;;;;;;8.90;7.40;;;16.10;99.90;15.60;100632;;;;583993;242;24075;-80
2023/06/24 00:25:39;;;;;;;12.00;6.57;;;16.20;99.90;15.60;100628;;;;583718;242;24033;-79
2023/06/24 00:28:08;;;;;;;10.90;6.77;;;16.20;99.90;15.60;100630;;;;583914;242;24013;-76
2023/06/24 00:30:36;;;;;;;8.47;6.20;;;16.20;99.90;15.60;100632;;;;583529;242;24044;-79
2023/06/24 00:33:09;;;;;;;11.67;6.73;;;16.10;99.90;15.60;100634;;;;583633;242;24020;-79
2023/06/24 00:35:33;;;;;;;13.30;7.27;;;16.00;99.90;15.60;100629;;;;583360;242;24070;-82
2023/06/24 00:38:01;;;;;;;8.87;7.33;;;16.10;99.90;15.60;100629;;;;583648;242;25087;-81
2023/06/24 00:40:29;;;;;;;9.07;6.47;;;16.10;99.90;15.60;100630;;;;583564;242;24064;-79
2023/06/24 00:42:57;;;;;;;9.67;6.50;;;16.20;99.90;15.60;100628;;;;583521;242;24072;-80
2023/06/24 00:45:25;;;;;;;9.00;6.53;;;16.20;99.90;15.60;100631;;;;583417;242;25084;-79
2023/06/24 00:47:54;;;;;;;11.47;6.07;;;16.10;99.90;15.60;100634;;;;583428;242;24067;-78
2023/06/24 00:50:21;;;;;;;10.33;6.50;;;16.10;99.90;15.60;100632;;;;583654;242;24112;-76
2023/06/24 00:52:49;;;;;;;11.57;6.03;;;16.20;99.90;15.60;100623;;;;585621;241;24039;-76
2023/06/24 00:55:17;;;;;;;11.67;6.97;;;16.10;99.90;15.60;100632;;;;585063;241;24096;-76
2023/06/24 00:57:48;;;;;;;9.63;5.97;;;16.30;99.90;15.60;100639;;;;584443;241;24056;-76
2023/06/24 01:00:16;;;;;;;9.07;6.27;;;16.00;99.90;15.60;100654;;;;572751;246;24124;-81
2023/06/24 01:02:44;;;;;;;6.57;4.90;;;16.20;99.90;15.60;100648;;;;588587;241;24022;-80
2023/06/24 01:05:10;;;;;;;10.93;5.67;;;16.20;99.90;15.60;100639;;;;573540;246;24093;-79
2023/06/24 01:07:37;;;;;;;5.87;4.87;;;16.20;99.90;15.60;100644;;;;573577;246;24057;-81
2023/06/24 01:10:08;;;;;;;11.13;6.00;;;16.20;99.90;15.60;100643;;;;583562;242;25089;-80
2023/06/24 01:12:39;;;;;;;9.93;7.50;;;16.10;99.90;15.60;100648;;;;567958;246;44762;-77
2023/06/24 01:15:07;;;;;;;9.17;6.60;;;16.50;99.90;15.60;100633;;;;581880;246;24094;-77
2023/06/24 01:17:34;;;;;;;9.20;6.53;;;16.10;99.90;15.60;100635;;;;584422;241;24063;-77
2023/06/24 01:20:11;;;;;;;6.77;5.97;;;16.10;99.90;15.60;100627;;;;583772;242;24115;-76
2023/06/24 01:23:03;;;;;;;7.77;5.97;;;15.90;99.90;15.60;100631;;;;582530;245;24045;-76
2023/06/24 01:25:46;;;;;;;8.60;4.97;;;16.10;99.90;15.50;100633;;;;584223;242;24017;-76
2023/06/24 01:28:22;;;;;;;9.32;7.30;;;16.20;99.90;15.50;100627;;;;568579;246;35333;-77
2023/06/24 01:30:56;;;;;;;9.73;7.43;;;16.10;99.90;15.50;100620;;;;574013;244;35190;-77
2023/06/24 01:33:27;;;;;;;9.00;6.00;;;16.20;99.90;15.40;100619;;;;579699;244;24033;-76
2023/06/24 01:35:58;;;;;;;9.83;6.00;;;16.00;99.90;15.40;100621;;;;578605;244;24138;-76
2023/06/24 01:38:23;;;;;;;7.37;4.70;;;16.00;99.90;15.40;100613;;;;573290;246;24043;-76
2023/06/24 01:40:54;;;;;;;7.27;5.40;;;16.00;99.90;15.40;100619;;;;573059;246;24056;-76
2023/06/24 01:43:21;;;;;;;8.93;5.87;;;16.00;99.90;15.40;100625;;;;583617;242;24044;-76
2023/06/24 01:45:47;;;;;;;8.80;5.67;;;15.90;99.90;15.30;100624;;;;573869;246;24051;-78
2023/06/24 01:48:21;;;;;;;6.73;4.93;;;15.90;99.90;15.30;100619;;;;573394;246;24159;-76
2023/06/24 01:51:10;;;;;;;6.93;5.03;;;15.90;99.90;15.30;100621;;;;579810;242;24028;-80
2023/06/24 01:53:42;;;;;;;6.83;4.97;;;15.90;99.90;15.30;100629;;;;583968;242;24020;-77
2023/06/24 01:56:06;;;;;;;8.77;5.20;;;15.90;99.90;15.30;100635;;;;584744;242;24020;-80
2023/06/24 01:58:34;;;;;;;7.47;4.33;;;15.90;99.90;15.30;100635;;;;584791;242;24117;-77
2023/06/24 02:01:02;;;;;;;8.07;4.53;;;15.90;99.90;15.30;100629;;;;583766;242;24035;-81
2023/06/24 02:03:31;;;;;;;5.63;4.97;;;15.90;99.90;15.30;100629;;;;585065;241;24023;-81
2023/06/24 02:06:02;;;;;;;8.60;5.27;;;15.90;99.90;15.30;100631;;;;585569;241;24074;-82
2023/06/24 02:08:27;;;;;;;7.50;5.30;;;15.90;99.90;15.30;100622;;;;584507;241;24027;-81
2023/06/24 02:10:55;;;;;;;8.90;4.63;;;15.80;99.90;15.30;100623;;;;584484;241;24100;-78
2023/06/24 02:13:25;;;;;;;8.87;6.37;;;15.90;99.90;15.30;100629;;;;584149;241;24028;-80
2023/06/24 02:15:53;;;;;;;8.37;5.13;;;15.90;99.90;15.30;100630;;;;583939;241;24032;-79
2023/06/24 02:18:22;;;;;;;6.37;5.10;;;15.90;99.90;15.40;100632;;;;584031;241;24040;-76
2023/06/24 02:20:49;;;;;;;7.03;4.47;;;15.90;99.90;15.30;100628;;;;583497;242;24032;-81
2023/06/24 02:23:18;;;;;;;7.40;4.43;;;15.90;99.90;15.40;100627;;;;584149;242;24151;-81
2023/06/24 02:25:44;;;;;;;6.97;4.93;;;15.90;99.90;15.30;100633;;;;584021;242;24036;-78
2023/06/24 02:28:15;;;;;;;8.40;5.60;;;15.90;99.90;15.30;100632;;;;584298;242;24009;-78
2023/06/24 02:30:43;;;;;;;12.25;6.10;;;16.00;99.90;15.40;100648;;;;578912;242;56821;-77
2023/06/24 02:33:11;;;;;;;9.67;5.20;;;15.90;99.90;15.30;100637;;;;583878;242;24035;-77
2023/06/24 02:35:35;;;;;;;6.17;4.60;;;15.90;99.90;15.40;100644;;;;583735;242;24087;-75
2023/06/24 02:38:03;;;;;;;8.20;5.23;;;16.00;99.90;15.40;100644;;;;584261;242;24012;-81
2023/06/24 02:40:34;;;;;;;5.77;4.57;;;16.00;99.90;15.40;100655;;;;584086;242;24026;-77
2023/06/24 02:42:59;;;;;;;8.47;4.80;;;15.90;99.90;15.40;100655;;;;584765;242;24028;-77
2023/06/24 02:45:27;;;;;;;7.90;4.43;;;15.90;99.90;15.30;100647;;;;584768;242;24032;-77
2023/06/24 02:47:58;;;;;;;4.80;4.40;;;15.90;99.90;15.30;100653;;;;584583;242;24092;-77
2023/06/24 02:50:24;;;;;;;7.90;4.10;;;15.90;99.90;15.30;100651;;;;583763;242;24047;-75
2023/06/24 02:52:52;;;;;;;6.03;4.27;;;15.80;99.90;15.30;100655;;;;584168;237;24048;-76
2023/06/24 02:55:20;;;;;;;7.20;3.93;;;15.70;99.90;15.30;100655;;;;584679;242;24033;-76
2023/06/24 02:57:48;;;;;;;5.97;4.67;;;15.80;99.90;15.30;100655;;;;585151;242;24052;-77
2023/06/24 03:00:16;;;;;;;5.27;4.03;;;15.80;99.90;15.20;100656;;;;584368;242;24061;-79
2023/06/24 03:02:44;;;;;;;4.30;3.90;;;15.80;99.90;15.20;100668;;;;583864;242;24084;-77
2023/06/24 03:05:12;;;;;;;5.97;4.53;;;15.80;99.90;15.20;100676;;;;583671;242;24053;-76
2023/06/24 03:07:42;;;;;;;6.57;4.20;;;15.80;99.90;15.20;100673;;;;583513;242;24110;-76
2023/06/24 03:10:10;;;;;;;5.53;3.87;;;15.80;99.90;15.20;100677;;;;583791;242;24023;-78
2023/06/24 03:12:41;;;;;;;6.97;4.33;;;15.70;99.90;15.10;100680;;;;583442;242;24039;-76
2023/06/24 03:15:10;;;;;;;7.80;4.27;;;15.70;99.90;15.10;100676;;;;584360;241;24126;-77
2023/06/24 03:17:34;;;;;;;6.07;3.93;;;15.70;99.90;15.10;100681;;;;584658;241;24027;-75
2023/06/24 03:20:02;;;;;;;4.30;3.83;;;15.70;99.90;15.10;100680;;;;584326;241;24028;-75
2023/06/24 03:22:30;;;;;;;7.87;4.17;;;15.70;99.90;15.10;100680;;;;584334;241;24019;-75
2023/06/24 03:25:00;;;;;;;7.00;3.80;;;15.60;99.90;15.00;100686;;;;584549;241;24040;-77
2023/06/24 03:27:25;;;;;;;4.93;3.97;;;15.60;99.90;15.00;100684;;;;591627;241;24143;-76
2023/06/24 03:29:53;;;;;;;4.20;3.80;;;15.60;99.90;15.00;100682;;;;584531;241;24029;-76
2023/06/24 03:32:21;;;;;;;9.97;4.10;;;15.60;99.90;15.00;100693;;;;584532;242;24022;-77
2023/06/24 03:34:49;;;;;;;7.77;4.20;;;15.50;99.90;15.00;100695;;;;584297;242;24013;-81
2023/06/24 03:37:17;;;;;;;5.37;3.83;;;15.60;99.90;15.10;100698;;;;584321;242;24013;-79
2023/06/24 03:39:45;;;;;;;5.20;3.90;;;15.60;99.90;15.10;100695;;;;584298;242;24062;-79
2023/06/24 03:42:13;;;;;;;4.13;3.73;;;15.60;99.90;15.20;100689;;;;584460;242;24024;-79
2023/06/24 03:44:41;;;;;;;6.23;4.20;;;15.80;99.90;15.30;100695;;;;584461;242;24039;-79
2023/06/24 03:47:09;;;;;;;5.33;3.67;;;16.00;99.90;15.40;100689;;;;584337;242;24005;-82
2023/06/24 03:49:37;;;;;;;10.73;3.77;;;15.90;99.90;15.50;100689;;;;584216;242;24037;-82
2023/06/24 03:52:08;;;;;;;5.20;3.80;;;16.00;99.90;15.60;100692;;;;583644;242;24018;-80
2023/06/24 03:54:33;;;;;;;5.90;3.27;;;16.10;99.90;15.70;100689;;;;583343;242;24046;-81
2023/06/24 03:57:01;;;;;;;4.83;3.80;;;16.30;99.90;15.90;100695;;;;583983;242;24019;-79
2023/06/24 03:59:28;;;;;;;5.50;4.23;;;16.40;99.90;16.00;100697;;;;583620;242;24050;-78
2023/06/24 04:01:56;;;;;;;4.37;2.67;;;16.50;99.90;16.10;100708;;;;583533;242;24108;-81
2023/06/24 04:04:25;;;;;;;4.40;3.60;;;16.70;99.90;16.20;100702;;;;584022;242;24022;-76
2023/06/24 04:06:54;;;;;;;8.63;3.70;;;16.80;99.90;16.30;100699;;;;584014;242;24038;-75
2023/06/24 04:09:25;;;;;;;6.80;3.50;;;16.80;99.90;16.40;100696;;;;583810;242;24031;-76
2023/06/24 04:11:53;;;;;;;4.80;3.90;;;17.00;99.90;16.60;100696;;;;583725;237;24028;-77
2023/06/24 04:14:18;;;;;;;5.83;3.40;;;17.10;99.90;16.80;100695;;;;591750;242;24024;-77
2023/06/24 04:16:46;;;;;;;5.17;2.97;;;17.30;99.90;16.90;100696;;;;584073;242;24024;-76
2023/06/24 04:19:13;;;;;;;10.33;3.33;;;17.40;99.90;17.00;100691;;;;583995;242;24001;-75
2023/06/24 04:21:41;;;;;;;3.37;3.10;;;17.50;99.90;17.20;100702;;;;584022;242;24020;-77
2023/06/24 04:24:09;;;;;;;6.30;3.60;;;17.70;99.90;17.40;100695;;;;583636;242;24038;-81
2023/06/24 04:26:37;;;;;;;5.27;3.27;;;17.90;99.90;17.60;100702;;;;585003;241;24087;-77
2023/06/24 04:29:08;;;;;;;3.80;3.40;;;18.10;99.90;17.80;100695;;;;585158;241;24016;-78
2023/06/24 04:31:34;;;;;;;3.33;3.03;;;18.60;99.90;18.10;100705;;;;584683;241;24055;-79
2023/06/24 04:34:02;;;;;;;4.60;3.40;;;18.60;99.90;18.40;100702;;;;584775;241;25126;-80
2023/06/24 04:36:30;;;;;;;3.30;2.93;;;18.90;99.90;18.70;100704;;;;584556;241;24016;-78
2023/06/24 04:38:58;;;;;;;4.30;3.40;;;20.00;99.90;19.60;100705;;;;584415;241;25125;-78
2023/06/24 04:41:26;;;;;;;9.27;3.37;;;20.00;99.90;21.00;100714;;;;584507;241;23040;-81
2023/06/24 04:43:54;;;;;;;3.33;3.03;;;21.40;99.90;22.00;100717;;;;584471;242;24068;-81
2023/06/24 04:46:22;;;;;;;3.60;3.40;;;22.50;99.90;22.00;100715;;;;584270;242;23993;-81
2023/06/24 04:48:50;;;;;;;3.37;3.07;;;22.60;99.90;21.60;100714;;;;584256;242;24092;-81
2023/06/24 04:51:18;;;;;;;3.97;3.27;;;22.30;99.90;21.20;100710;;;;584195;242;24037;-81
2023/06/24 04:53:46;;;;;;;3.97;3.17;;;21.90;99.90;20.80;100714;;;;583902;242;24043;-76
2023/06/24 04:56:14;;;;;;;5.53;3.00;;;21.50;99.90;20.40;100714;;;;584305;242;24015;-81
2023/06/24 04:58:42;;;;;;;4.43;2.83;;;21.20;99.90;20.20;100718;;;;584000;242;24079;-81
2023/06/24 05:01:13;;;;;;;3.27;2.90;;;20.80;99.90;19.90;100719;;;;583880;242;24064;-81
2023/06/24 05:03:38;;;;;;;3.53;3.23;;;20.50;99.90;19.60;100716;;;;583178;242;24040;-79
2023/06/24 05:06:06;;;;;;;4.57;2.80;;;20.30;99.90;19.50;100717;;;;583740;242;23056;-81
2023/06/24 05:08:34;;;;;;;4.13;3.20;;;19.80;99.90;19.20;100723;;;;583731;242;24049;-82
2023/06/24 05:11:02;;;;;;;6.53;3.40;;;19.80;99.90;19.10;100732;;;;583671;242;23067;-82
2023/06/24 05:13:30;;;;;;;5.13;3.30;;;19.60;99.90;19.00;100725;;;;588468;242;24132;-81
2023/06/24 05:15:58;;;;;;;4.40;3.50;;;19.50;99.90;18.90;100731;;;;583643;242;24059;-78
2023/06/24 05:18:26;;;;;;;5.00;3.50;;;19.50;99.90;18.90;100733;;;;583584;242;25106;-81
2023/06/24 05:20:54;;;;;;;4.10;3.70;;;19.40;99.90;18.90;100727;;;;583709;242;24020;-82
2023/06/24 05:23:22;;;;;;;3.67;3.30;;;19.40;99.90;18.90;100733;;;;583572;242;24110;-82
2023/06/24 05:25:50;;;;;;;6.57;3.60;;;19.40;99.90;18.90;100727;;;;583794;242;23037;-81
2023/06/24 05:28:18;;;;;;;4.00;3.60;;;19.50;99.90;19.10;100730;;;;584058;242;24005;-80
2023/06/24 05:30:46;;;;;;;4.40;3.43;;;19.60;99.90;19.30;100727;;;;583993;242;24011;-79
2023/06/24 05:33:14;;;;;;;3.27;3.03;;;19.70;99.90;19.60;100726;;;;583845;242;24046;-80
2023/06/24 05:35:42;;;;;;;4.67;3.10;;;20.00;99.90;20.00;100732;;;;583864;242;24078;-81
2023/06/24 05:38:14;;;;;;;7.77;3.27;;;20.40;99.90;20.30;100740;;;;584556;241;23045;-80
2023/06/24 05:40:38;;;;;;;3.40;3.20;;;20.80;99.90;20.60;100734;;;;585259;241;24018;-77
2023/06/24 05:43:06;;;;;;;4.93;4.00;;;21.00;99.90;20.80;100729;;;;585894;241;23101;-76
2023/06/24 05:45:35;;;;;;;4.43;3.53;;;21.60;99.90;21.20;100729;;;;585210;241;24117;-78
2023/06/24 05:48:06;;;;;;;6.83;3.87;;;21.90;99.90;21.40;100727;;;;584974;241;24073;-79
2023/06/24 05:50:31;;;;;;;5.23;3.73;;;21.80;99.90;22.00;100724;;;;584628;241;23040;-78
2023/06/24 05:52:59;;;;;;;3.63;3.33;;;22.30;99.90;23.70;100720;;;;584618;241;24093;-79
2023/06/24 05:55:27;;;;;;;3.80;3.50;;;23.90;99.90;25.60;100724;;;;585030;242;24038;-77
2023/06/24 05:57:55;;;;;;;3.50;3.20;;;25.80;99.90;26.50;100734;;;;584835;242;24019;-76
2023/06/24 06:00:23;;;;;;;3.57;3.27;;;26.90;99.90;27.80;100726;;;;584431;242;23030;-78
2023/06/24 06:02:51;;;;;;;5.93;3.73;;;28.00;99.90;28.60;100725;;;;584255;242;23036;-78
2023/06/24 06:05:24;;;;;;;4.47;3.05;;;29.00;98.40;28.80;100728;;;;584310;242;23018;-82
2023/06/24 06:07:53;;;;;;;10.27;3.30;;;29.30;96.50;29.50;100727;;;;584214;242;24029;-81
2023/06/24 06:10:22;;;;;;;4.18;3.25;;;29.90;94.70;30.70;100719;;;;584277;242;23056;-81
2023/06/24 06:12:47;;;;;;;9.45;3.50;;;31.00;92.90;31.60;100719;;;;583911;242;23036;-82
2023/06/24 06:15:19;;;;;;;3.75;3.20;;;32.00;89.40;32.00;100728;;;;584118;242;24071;-82
2023/06/24 06:17:43;;;;;;;4.80;3.30;;;32.40;85.10;33.20;100732;;;;591094;242;23048;-81
2023/06/24 06:20:11;;;;;;;3.55;2.67;;;33.50;82.60;35.30;100733;;;;584013;242;23053;-82
2023/06/24 06:22:42;;;;;;;3.92;2.65;;;35.40;76.10;37.50;100749;;;;584039;242;23099;-81
2023/06/24 06:25:10;;;;;;;5.22;3.05;;;37.60;66.60;39.50;100753;;;;592981;237;24073;-78
2023/06/24 06:27:35;;;;;;;3.30;3.08;;;39.50;59.40;40.90;100766;;;;578359;242;34924;-79
2023/06/24 06:30:06;;;;;;;5.45;3.40;;;41.00;54.30;40.60;100768;;;;584053;242;23034;-81
2023/06/24 06:32:31;;;;;;;3.80;3.20;;;41.10;51.70;40.30;100763;;;;583809;242;23055;-83
2023/06/24 06:34:59;;;;;;;5.15;3.00;;;40.90;50.80;40.60;100765;;;;584003;242;23032;-81
2023/06/24 06:37:27;;;;;;;3.72;3.42;;;41.10;50.60;41.60;100765;;;;584074;242;23038;-78
2023/06/24 06:39:54;;;;;;;3.45;3.15;;;41.90;49.60;42.40;100771;;;;584040;242;23027;-78
2023/06/24 06:42:22;;;;;;;5.30;3.22;;;42.70;48.40;43.00;100770;;;;584007;242;23035;-79
2023/06/24 06:44:50;;;;;;;5.05;2.50;;;43.30;47.10;43.80;100772;;;;584056;242;23062;-80
2023/06/24 06:47:19;;;;;;;3.83;3.37;;;44.60;44.90;44.20;100774;;;;584012;242;23027;-80
2023/06/24 06:49:48;;;;;;;3.28;2.95;;;44.90;44.30;44.60;100771;;;;585137;241;23030;-78
2023/06/24 06:52:20;;;;;;;3.12;2.60;;;45.40;44.60;45.20;100769;;;;585156;241;23033;-80
2023/06/24 06:54:45;;;;;;;3.70;2.97;;;46.20;43.00;46.00;100773;;;;584831;241;23075;-79
2023/06/24 06:57:13;;;;;;;5.90;3.05;;;46.10;42.90;46.50;100781;;;;584556;237;23041;-82
2023/06/24 06:59:41;;;;;;;7.60;2.80;;;46.70;41.80;47.10;100785;;;;584834;241;23087;-84
2023/06/24 07:02:10;;;;;;;3.47;3.28;;;47.70;40.40;47.40;100784;;;;584431;241;24069;-82
2023/06/24 07:04:38;;;;;;;2.97;2.75;;;47.90;39.70;47.60;100792;;;;584161;241;24053;-81
2023/06/24 07:07:06;;;;;;;4.15;2.95;;;47.80;39.60;47.80;100781;;;;584650;242;23022;-83
2023/06/24 07:09:34;;;;;;;3.28;2.97;;;48.20;39.50;48.10;100788;;;;584363;242;23044;-83
2023/06/24 07:12:02;;;;;;;3.15;2.95;;;48.30;39.20;48.50;100792;;;;584421;242;23064;-83
2023/06/24 07:14:30;;;;;;;3.47;3.20;;;48.70;39.20;49.10;100790;;;;584400;242;23053;-81
2023/06/24 07:16:58;;;;;;;3.58;3.28;;;49.20;38.50;49.30;100792;;;;583955;242;23029;-79
2023/06/24 07:19:26;;;;;;;3.97;2.95;;;49.50;37.90;49.30;100792;;;;584002;242;23033;-79
2023/06/24 07:21:54;;;;;;;3.30;2.97;;;49.50;37.70;49.90;100799;;;;584161;242;23031;-82
2023/06/24 07:24:24;;;;;;;5.50;3.58;;;49.80;37.30;50.20;100794;;;;584411;242;23085;-81
2023/06/24 07:26:49;;;;;;;3.70;3.40;;;50.20;37.20;50.50;100796;;;;583854;242;23071;-81
2023/06/24 07:29:18;;;;;;;3.15;3.03;;;50.80;36.30;50.60;100801;;;;583922;242;23075;-82
2023/06/24 07:31:46;;;;;;;4.28;3.03;;;50.80;36.20;51.00;100796;;;;583819;242;23049;-80
2023/06/24 07:34:15;;;;;;;7.62;2.75;;;51.40;35.90;51.20;100797;;;;584003;242;23051;-79
2023/06/24 07:36:43;;;;;;;6.00;3.20;;;51.30;35.80;51.40;100803;;;;584177;242;24056;-81
2023/06/24 07:39:11;;;;;;;4.60;2.80;;;51.70;35.30;51.70;100798;;;;584068;242;23040;-80
2023/06/24 07:41:42;;;;;;;4.80;3.20;;;52.00;35.40;51.80;100801;;;;583981;242;23061;-79
2023/06/24 07:44:06;;;;;;;3.40;3.12;;;52.10;34.50;51.90;100790;;;;583776;242;23089;-81
2023/06/24 07:46:34;;;;;;;4.95;3.40;;;52.10;34.60;51.90;100794;;;;583985;242;23022;-81
2023/06/24 07:49:02;;;;;;;5.15;2.97;;;52.10;34.60;52.20;100803;;;;583937;242;23070;-80
2023/06/24 07:51:30;;;;;;;3.75;3.10;;;52.50;34.40;52.40;100802;;;;584065;242;23030;-80
2023/06/24 07:53:58;;;;;;;5.80;3.15;;;52.50;33.90;52.40;100803;;;;583974;242;23030;-81
2023/06/24 07:56:26;;;;;;;6.95;3.85;;;52.50;34.00;52.60;100801;;;;583940;242;23038;-82
2023/06/24 07:58:54;;;;;;;3.55;3.33;;;52.70;33.90;53.00;100801;;;;583508;242;23050;-83
2023/06/24 08:01:22;;;;;;;5.70;3.53;;;53.00;33.60;53.20;100804;;;;584925;241;23073;-79
2023/06/24 08:03:51;;;;;;;3.53;3.22;;;53.30;32.50;53.20;100814;;;;585113;241;23021;-81
2023/06/24 08:06:18;;;;;;;3.55;3.25;;;53.30;32.50;53.10;100812;;;;585010;241;23054;-80
2023/06/24 08:08:46;;;;;;;3.67;3.05;;;53.20;32.50;53.20;100817;;;;584858;241;23060;-86
2023/06/24 08:11:18;;;;;;;3.75;3.45;;;53.30;32.00;53.80;100820;;;;584586;241;23037;-82
2023/06/24 08:13:42;;;;;;;5.20;3.45;;;53.70;32.00;54.00;100818;;;;584315;241;23085;-83
2023/06/24 08:16:10;;;;;;;4.05;3.62;;;54.10;31.80;54.00;100828;;;;584551;241;23034;-82
2023/06/24 08:18:39;;;;;;;3.70;3.28;;;54.20;30.40;53.20;100831;;;;584453;242;23058;-81
2023/06/24 08:21:10;;;;;;;3.53;3.17;;;53.80;31.00;52.30;100843;;;;584292;242;23031;-81
2023/06/24 08:23:34;;;;;;;3.08;2.87;;;53.20;31.20;51.30;100844;;;;583954;242;23034;-82
2023/06/24 08:26:02;;;;;;;5.70;3.08;;;52.20;31.60;50.80;100844;;;;584404;242;23069;-81
2023/06/24 08:28:30;;;;;;;3.45;3.20;;;51.30;32.40;50.90;100846;;;;584463;242;23053;-83
2023/06/24 08:31:01;;;;;;;3.50;3.20;;;51.00;32.90;50.70;100847;;;;584019;242;23046;-83
2023/06/24 08:33:28;;;;;;;3.33;3.05;;;50.60;33.00;50.10;100848;;;;583578;242;23046;-80
2023/06/24 08:35:56;;;;;;;3.42;3.22;;;50.60;32.90;49.30;100858;;;;584203;242;23072;-79
2023/06/24 08:38:24;;;;;;;3.22;3.03;;;49.90;33.10;48.00;100865;;;;583975;242;24083;-78
2023/06/24 08:40:55;;;;;;;3.53;3.15;;;48.80;33.30;46.80;100864;;;;583966;242;23041;-81
2023/06/24 08:43:24;;;;;;;3.40;3.20;;;46.40;34.80;45.60;100861;;;;583438;242;23062;-83
2023/06/24 08:45:49;;;;;;;4.40;3.40;;;45.30;36.10;44.60;100863;;;;583276;242;24192;-81
2023/06/24 08:48:21;;;;;;;6.05;3.75;;;45.20;36.00;43.70;100866;;;;583761;242;24068;-80
2023/06/24 08:50:46;;;;;;;10.73;5.35;;;44.30;36.80;42.40;100869;;;;583420;242;23066;-83
2023/06/24 08:53:14;;;;;;;9.45;3.20;;;41.90;38.70;41.30;100864;;;;583972;242;23102;-83
2023/06/24 08:55:43;;;;;;;5.55;3.33;;;41.00;39.50;40.40;100863;;;;583710;242;23076;-81
2023/06/24 08:58:13;;;;;;;7.72;3.55;;;40.90;39.40;39.70;100863;;;;583711;242;24080;-81
2023/06/24 09:00:39;;;;;;;13.35;4.35;;;40.30;40.20;39.00;100865;;;;583398;242;23049;-80
2023/06/24 09:03:06;;;;;;;5.62;4.15;;;39.60;41.40;38.30;100862;;;;583988;242;23019;-81
2023/06/24 09:05:34;;;;;;;3.50;3.22;;;38.90;42.30;37.40;100856;;;;584052;242;23120;-80
2023/06/24 09:08:06;;;;;;;7.18;4.07;;;38.00;43.40;36.70;100864;;;;584022;242;24140;-78
2023/06/24 09:10:36;;;;;;;4.10;3.53;;;37.20;45.50;36.00;100861;;;;583602;242;23038;-81
2023/06/24 09:13:04;;;;;;;4.05;3.47;;;36.40;46.60;35.30;100864;;;;585059;241;24105;-86
2023/06/24 09:15:35;;;;;;;5.93;3.70;;;35.70;47.60;35.00;100867;;;;585287;241;24063;-79
2023/06/24 09:18:00;;;;;;;4.40;4.00;;;35.20;48.10;34.30;100874;;;;584371;241;23051;-81
2023/06/24 09:20:32;;;;;;;5.87;3.58;;;34.70;48.80;33.70;100857;;;;584909;241;24097;-81
2023/06/24 09:23:05;;;;;;;10.15;4.03;;;34.10;49.80;33.40;100866;;;;584597;241;23051;-80
2023/06/24 09:25:29;;;;;;;4.65;3.62;;;33.60;50.70;33.40;100869;;;;583564;241;23062;-83
2023/06/24 09:28:03;;;;;;;4.87;3.75;;;33.50;52.20;33.30;100866;;;;579463;241;34962;-84
2023/06/24 09:30:32;;;;;;;5.80;4.15;;;33.40;51.30;33.10;100864;;;;584435;242;23059;-83
2023/06/24 09:33:00;;;;;;;6.37;4.00;;;33.30;51.20;33.00;100865;;;;584096;237;23078;-81
2023/06/24 09:35:28;;;;;;;3.40;3.10;;;33.20;51.80;33.10;100866;;;;583908;242;23047;-83
2023/06/24 09:37:59;;;;;;;4.00;2.85;;;33.30;51.90;33.10;100875;;;;583763;242;23046;-85
2023/06/24 09:40:24;;;;;;;5.37;3.72;;;33.30;51.90;33.30;100870;;;;583662;242;24126;-80
2023/06/24 09:43:02;;;;;;;3.80;3.50;;;33.40;51.80;33.30;100872;;;;583794;242;23049;-79
2023/06/24 09:45:29;;;;;;;7.75;3.62;;;33.50;51.50;33.30;100869;;;;583524;242;23060;-83
2023/06/24 09:48:03;;;;;;;3.90;3.60;;;33.70;51.20;33.50;100864;;;;583743;242;23049;-80
2023/06/24 09:50:31;;;;;;;4.80;3.62;;;33.70;51.20;33.70;100854;;;;583205;242;24291;-82
2023/06/24 09:52:56;;;;;;;6.22;3.60;;;33.90;51.00;34.00;100866;;;;583057;242;23052;-84
2023/06/24 09:55:28;;;;;;;4.25;3.85;;;34.20;51.20;34.20;100859;;;;583591;242;23068;-82
2023/06/24 09:57:52;;;;;;;4.20;3.78;;;34.40;50.50;34.20;100864;;;;583217;242;23055;-83
2023/06/24 10:00:23;;;;;;;6.95;4.00;;;34.50;50.70;34.30;100863;;;;583468;242;24113;-83
2023/06/24 10:02:51;;;;;;;4.30;3.72;;;34.60;50.10;34.30;100854;;;;583731;242;24141;-83
2023/06/24 10:05:16;;;;;;;3.60;3.33;;;34.60;50.10;34.50;100857;;;;583518;242;23070;-81
2023/06/24 10:07:47;;;;;;;8.35;3.97;;;34.70;50.80;34.30;100863;;;;584023;242;23057;-81
2023/06/24 10:10:12;;;;;;;4.85;4.10;;;34.60;50.70;33.90;100855;;;;583930;242;23058;-80
2023/06/24 10:12:39;;;;;;;4.30;3.60;;;34.30;51.10;33.80;100858;;;;584041;242;23029;-82
2023/06/24 10:15:12;;;;;;;4.62;4.07;;;34.00;51.60;33.70;100856;;;;584053;242;23046;-81
2023/06/24 10:17:36;;;;;;;8.43;4.28;;;34.00;51.60;33.60;100852;;;;590101;242;23034;-82
2023/06/24 10:20:09;;;;;;;4.90;3.55;;;33.90;51.60;33.60;100859;;;;584061;242;23034;-83
2023/06/24 10:22:36;;;;;;;4.07;3.53;;;33.90;51.60;34.00;100856;;;;584009;242;23128;-82
2023/06/24 10:25:04;;;;;;;9.75;5.75;;;34.20;52.00;34.60;100860;;;;585164;241;23089;-79
2023/06/24 10:27:33;;;;;;;4.12;3.67;;;34.70;51.10;35.00;100858;;;;584534;241;23047;-82
2023/06/24 10:30:07;;;;;;;5.30;3.97;;;35.60;49.50;35.30;100857;;;;584809;241;24057;-83
2023/06/24 10:32:42;;;;;;;15.05;5.57;;;36.00;48.60;35.70;100860;;;;584044;241;23054;-80
2023/06/24 10:35:09;;;;;;;3.05;2.83;;;36.00;48.60;36.10;100857;;;;584167;241;23409;-82
2023/06/24 10:37:39;;;;;;;4.75;3.65;;;36.40;48.50;36.10;100865;;;;582531;241;24052;-82
2023/06/24 10:40:12;;;;;;;4.80;3.70;;;36.50;47.50;35.80;100864;;;;584050;241;23052;-81
2023/06/24 10:42:41;;;;;;;5.00;3.20;;;36.30;47.70;35.50;100860;;;;590776;242;23073;-82
2023/06/24 10:45:13;;;;;;;5.07;3.53;;;36.00;47.80;35.50;100859;;;;583676;242;23068;-81
2023/06/24 10:47:43;;;;;;;5.22;3.00;;;35.80;48.30;35.70;100856;;;;583735;242;23089;-81
2023/06/24 10:50:08;;;;;;;3.83;3.37;;;35.90;48.50;35.80;100860;;;;583337;242;23057;-82
2023/06/24 10:52:40;;;;;;;10.95;4.30;;;35.90;48.50;35.70;100860;;;;583783;242;23058;-80
2023/06/24 10:55:08;;;;;;;7.45;4.25;;;35.90;48.50;35.20;100863;;;;583723;242;24089;-83
2023/06/24 10:57:36;;;;;;;6.68;3.80;;;35.50;48.80;34.70;100862;;;;584091;242;23086;-80
2023/06/24 11:00:04;;;;;;;8.68;4.87;;;35.10;50.10;34.20;100857;;;;583631;242;23076;-80
2023/06/24 11:02:32;;;;;;;4.20;3.35;;;34.10;51.40;33.70;100872;;;;583365;242;23044;-78
2023/06/24 11:05:03;;;;;;;5.03;4.10;;;34.00;51.40;33.00;100866;;;;593622;237;23061;-79
2023/06/24 11:07:30;;;;;;;5.40;4.03;;;33.40;51.70;32.70;100860;;;;583746;238;23053;-81
2023/06/24 11:09:56;;;;;;;8.15;4.10;;;33.00;52.30;32.50;100855;;;;583661;242;23093;-79
2023/06/24 11:12:27;;;;;;;7.93;4.03;;;32.80;52.70;32.50;100857;;;;583214;242;23145;-82
2023/06/24 11:15:03;;;;;;;7.45;4.28;;;32.70;53.10;32.60;100859;;;;572402;246;23121;-80